sensor_id;sensor_type;location;lat;lon;timestamp;P1;durP1;ratioP1;P2;durP2;ratioP2
21741;SDS011;11033;47.490;11.116;2023-04-29T00:01:48;2.15;;;1.35;;
21741;SDS011;11033;47.490;11.116;2023-04-29T00:04:14;3.75;;;1.50;;
21741;SDS011;11033;47.490;11.116;2023-04-29T00:06:40;2.75;;;1.60;;
21741;SDS011;11033;47.490;11.116;2023-04-29T00:09:06;4.28;;;1.38;;
21741;SDS011;11033;47.490;11.116;2023-04-29T00:11:31;1.57;;;1.23;;
21741;SDS011;11033;47.490;11.116;2023-04-29T00:13:56;3.97;;;1.60;;
21741;SDS011;11033;47.490;11.116;2023-04-29T00:16:21;3.60;;;1.27;;
21741;SDS011;11033;47.490;11.116;2023-04-29T00:18:47;5.20;;;1.40;;
21741;SDS011;11033;47.490;11.116;2023-04-29T00:21:12;6.82;;;1.95;;
21741;SDS011;11033;47.490;11.116;2023-04-29T00:23:37;4.90;;;1.67;;
21741;SDS011;11033;47.490;11.116;2023-04-29T00:26:03;6.13;;;1.45;;
21741;SDS011;11033;47.490;11.116;2023-04-29T00:28:28;4.43;;;1.48;;
21741;SDS011;11033;47.490;11.116;2023-04-29T00:30:53;5.05;;;2.15;;
21741;SDS011;11033;47.490;11.116;2023-04-29T00:33:19;2.08;;;1.50;;
21741;SDS011;11033;47.490;11.116;2023-04-29T00:35:45;2.60;;;1.45;;
21741;SDS011;11033;47.490;11.116;2023-04-29T00:38:11;2.35;;;1.15;;
21741;SDS011;11033;47.490;11.116;2023-04-29T00:40:36;2.10;;;1.43;;
21741;SDS011;11033;47.490;11.116;2023-04-29T00:43:01;2.25;;;1.10;;
21741;SDS011;11033;47.490;11.116;2023-04-29T00:45:27;2.10;;;1.38;;
21741;SDS011;11033;47.490;11.116;2023-04-29T00:47:52;4.32;;;1.15;;
21741;SDS011;11033;47.490;11.116;2023-04-29T00:50:17;5.00;;;1.50;;
21741;SDS011;11033;47.490;11.116;2023-04-29T00:52:43;4.28;;;1.77;;
21741;SDS011;11033;47.490;11.116;2023-04-29T00:55:08;1.98;;;1.20;;
21741;SDS011;11033;47.490;11.116;2023-04-29T00:57:36;3.70;;;1.05;;
21741;SDS011;11033;47.490;11.116;2023-04-29T01:00:03;5.72;;;1.35;;
21741;SDS011;11033;47.490;11.116;2023-04-29T01:02:29;2.67;;;1.20;;
21741;SDS011;11033;47.490;11.116;2023-04-29T01:04:55;1.80;;;1.15;;
21741;SDS011;11033;47.490;11.116;2023-04-29T01:12:44;1.63;;;1.17;;
21741;SDS011;11033;47.490;11.116;2023-04-29T01:15:20;4.82;;;1.27;;
21741;SDS011;11033;47.490;11.116;2023-04-29T01:18:02;1.92;;;1.02;;
21741;SDS011;11033;47.490;11.116;2023-04-29T01:20:44;1.25;;;0.95;;
21741;SDS011;11033;47.490;11.116;2023-04-29T01:23:10;2.25;;;1.02;;
21741;SDS011;11033;47.490;11.116;2023-04-29T01:25:36;1.20;;;0.88;;
21741;SDS011;11033;47.490;11.116;2023-04-29T01:36:36;1.17;;;0.80;;
21741;SDS011;11033;47.490;11.116;2023-04-29T01:39:08;1.17;;;0.95;;
21741;SDS011;11033;47.490;11.116;2023-04-29T01:44:23;1.33;;;0.90;;
21741;SDS011;11033;47.490;11.116;2023-04-29T01:46:51;3.22;;;1.10;;
21741;SDS011;11033;47.490;11.116;2023-04-29T01:49:27;3.17;;;0.82;;
21741;SDS011;11033;47.490;11.116;2023-04-29T01:51:53;2.08;;;1.00;;
21741;SDS011;11033;47.490;11.116;2023-04-29T01:54:18;0.70;;;0.70;;
21741;SDS011;11033;47.490;11.116;2023-04-29T01:56:45;2.75;;;0.90;;
21741;SDS011;11033;47.490;11.116;2023-04-29T01:59:10;3.75;;;1.10;;
21741;SDS011;11033;47.490;11.116;2023-04-29T02:01:35;2.55;;;0.90;;
21741;SDS011;11033;47.490;11.116;2023-04-29T02:04:01;1.83;;;1.30;;
21741;SDS011;11033;47.490;11.116;2023-04-29T02:06:27;0.88;;;0.80;;
21741;SDS011;11033;47.490;11.116;2023-04-29T02:08:52;5.38;;;0.95;;
21741;SDS011;11033;47.490;11.116;2023-04-29T02:11:18;5.80;;;1.15;;
21741;SDS011;11033;47.490;11.116;2023-04-29T02:13:43;2.38;;;1.35;;
21741;SDS011;11033;47.490;11.116;2023-04-29T02:16:09;1.20;;;0.97;;
21741;SDS011;11033;47.490;11.116;2023-04-29T02:18:36;2.65;;;1.30;;
21741;SDS011;11033;47.490;11.116;2023-04-29T02:21:01;3.55;;;1.08;;
21741;SDS011;11033;47.490;11.116;2023-04-29T02:23:27;2.70;;;1.40;;
21741;SDS011;11033;47.490;11.116;2023-04-29T02:25:53;2.67;;;1.63;;
21741;SDS011;11033;47.490;11.116;2023-04-29T02:28:18;2.95;;;1.05;;
21741;SDS011;11033;47.490;11.116;2023-04-29T02:30:44;1.80;;;0.98;;
21741;SDS011;11033;47.490;11.116;2023-04-29T02:33:09;1.73;;;0.90;;
21741;SDS011;11033;47.490;11.116;2023-04-29T02:35:34;5.70;;;1.40;;
21741;SDS011;11033;47.490;11.116;2023-04-29T02:38:00;3.55;;;0.98;;
21741;SDS011;11033;47.490;11.116;2023-04-29T02:40:25;2.08;;;1.30;;
21741;SDS011;11033;47.490;11.116;2023-04-29T02:42:51;2.17;;;1.02;;
21741;SDS011;11033;47.490;11.116;2023-04-29T02:45:16;6.15;;;1.38;;
21741;SDS011;11033;47.490;11.116;2023-04-29T02:47:41;3.33;;;1.23;;
21741;SDS011;11033;47.490;11.116;2023-04-29T02:50:07;1.27;;;1.15;;
21741;SDS011;11033;47.490;11.116;2023-04-29T02:52:33;2.33;;;1.10;;
21741;SDS011;11033;47.490;11.116;2023-04-29T02:54:58;2.00;;;1.08;;
21741;SDS011;11033;47.490;11.116;2023-04-29T02:57:24;1.55;;;0.90;;
21741;SDS011;11033;47.490;11.116;2023-04-29T02:59:49;1.80;;;1.13;;
21741;SDS011;11033;47.490;11.116;2023-04-29T03:02:15;1.15;;;0.90;;
21741;SDS011;11033;47.490;11.116;2023-04-29T03:04:41;2.60;;;1.25;;
21741;SDS011;11033;47.490;11.116;2023-04-29T03:07:06;3.20;;;1.02;;
21741;SDS011;11033;47.490;11.116;2023-04-29T03:09:32;0.80;;;0.80;;
21741;SDS011;11033;47.490;11.116;2023-04-29T03:11:57;0.95;;;0.88;;
21741;SDS011;11033;47.490;11.116;2023-04-29T03:14:22;2.47;;;1.10;;
21741;SDS011;11033;47.490;11.116;2023-04-29T03:16:48;3.60;;;0.77;;
21741;SDS011;11033;47.490;11.116;2023-04-29T03:19:13;2.33;;;0.95;;
21741;SDS011;11033;47.490;11.116;2023-04-29T03:21:39;1.35;;;1.13;;
21741;SDS011;11033;47.490;11.116;2023-04-29T03:24:04;1.95;;;0.80;;
21741;SDS011;11033;47.490;11.116;2023-04-29T03:26:30;2.70;;;0.80;;
21741;SDS011;11033;47.490;11.116;2023-04-29T03:28:55;2.53;;;1.00;;
21741;SDS011;11033;47.490;11.116;2023-04-29T03:31:22;2.53;;;1.50;;
21741;SDS011;11033;47.490;11.116;2023-04-29T03:33:48;4.15;;;1.67;;
21741;SDS011;11033;47.490;11.116;2023-04-29T03:36:14;4.18;;;1.20;;
21741;SDS011;11033;47.490;11.116;2023-04-29T03:38:40;2.58;;;1.27;;
21741;SDS011;11033;47.490;11.116;2023-04-29T03:41:05;1.00;;;0.90;;
21741;SDS011;11033;47.490;11.116;2023-04-29T03:43:31;1.13;;;0.70;;
21741;SDS011;11033;47.490;11.116;2023-04-29T03:45:57;0.85;;;0.68;;
21741;SDS011;11033;47.490;11.116;2023-04-29T03:48:23;1.08;;;0.63;;
21741;SDS011;11033;47.490;11.116;2023-04-29T03:50:48;3.40;;;1.00;;
21741;SDS011;11033;47.490;11.116;2023-04-29T03:53:14;4.10;;;0.90;;
21741;SDS011;11033;47.490;11.116;2023-04-29T03:55:39;1.45;;;1.00;;
21741;SDS011;11033;47.490;11.116;2023-04-29T03:58:05;1.75;;;0.60;;
21741;SDS011;11033;47.490;11.116;2023-04-29T04:00:31;1.58;;;0.80;;
21741;SDS011;11033;47.490;11.116;2023-04-29T04:02:56;3.05;;;0.85;;
21741;SDS011;11033;47.490;11.116;2023-04-29T04:05:23;0.98;;;0.70;;
21741;SDS011;11033;47.490;11.116;2023-04-29T04:07:49;3.20;;;1.00;;
21741;SDS011;11033;47.490;11.116;2023-04-29T04:10:16;2.15;;;0.90;;
21741;SDS011;11033;47.490;11.116;2023-04-29T04:12:41;1.60;;;0.68;;
21741;SDS011;11033;47.490;11.116;2023-04-29T04:15:06;1.37;;;1.10;;
21741;SDS011;11033;47.490;11.116;2023-04-29T04:17:32;1.67;;;0.73;;
21741;SDS011;11033;47.490;11.116;2023-04-29T04:19:57;1.13;;;0.97;;
21741;SDS011;11033;47.490;11.116;2023-04-29T04:22:23;1.57;;;1.00;;
21741;SDS011;11033;47.490;11.116;2023-04-29T04:24:48;2.65;;;1.40;;
21741;SDS011;11033;47.490;11.116;2023-04-29T04:27:13;2.47;;;0.98;;
21741;SDS011;11033;47.490;11.116;2023-04-29T04:29:39;3.00;;;1.30;;
21741;SDS011;11033;47.490;11.116;2023-04-29T04:32:04;5.90;;;1.40;;
21741;SDS011;11033;47.490;11.116;2023-04-29T04:34:29;5.03;;;1.00;;
21741;SDS011;11033;47.490;11.116;2023-04-29T04:36:55;4.28;;;0.95;;
21741;SDS011;11033;47.490;11.116;2023-04-29T04:39:20;2.50;;;1.05;;
21741;SDS011;11033;47.490;11.116;2023-04-29T04:41:45;2.65;;;0.90;;
21741;SDS011;11033;47.490;11.116;2023-04-29T04:44:10;2.30;;;0.80;;
21741;SDS011;11033;47.490;11.116;2023-04-29T04:46:37;2.50;;;1.20;;
21741;SDS011;11033;47.490;11.116;2023-04-29T04:49:02;2.77;;;1.20;;
21741;SDS011;11033;47.490;11.116;2023-04-29T04:51:27;2.67;;;1.00;;
21741;SDS011;11033;47.490;11.116;2023-04-29T04:53:53;1.15;;;1.08;;
21741;SDS011;11033;47.490;11.116;2023-04-29T04:56:18;1.83;;;1.30;;
21741;SDS011;11033;47.490;11.116;2023-04-29T04:58:44;1.88;;;0.95;;
21741;SDS011;11033;47.490;11.116;2023-04-29T05:01:09;2.30;;;1.10;;
21741;SDS011;11033;47.490;11.116;2023-04-29T05:03:35;3.95;;;1.20;;
21741;SDS011;11033;47.490;11.116;2023-04-29T05:06:00;1.75;;;1.63;;
21741;SDS011;11033;47.490;11.116;2023-04-29T05:08:26;1.55;;;1.30;;
21741;SDS011;11033;47.490;11.116;2023-04-29T05:10:51;2.67;;;1.40;;
21741;SDS011;11033;47.490;11.116;2023-04-29T05:13:17;1.33;;;1.23;;
21741;SDS011;11033;47.490;11.116;2023-04-29T05:15:43;2.65;;;1.40;;
21741;SDS011;11033;47.490;11.116;2023-04-29T05:18:09;1.20;;;1.10;;
21741;SDS011;11033;47.490;11.116;2023-04-29T05:20:34;1.27;;;1.17;;
21741;SDS011;11033;47.490;11.116;2023-04-29T05:23:00;3.17;;;0.98;;
21741;SDS011;11033;47.490;11.116;2023-04-29T05:25:26;1.50;;;1.40;;
21741;SDS011;11033;47.490;11.116;2023-04-29T05:27:51;2.97;;;1.88;;
21741;SDS011;11033;47.490;11.116;2023-04-29T05:30:17;1.73;;;1.60;;
21741;SDS011;11033;47.490;11.116;2023-04-29T05:32:43;1.25;;;1.15;;
21741;SDS011;11033;47.490;11.116;2023-04-29T05:35:09;1.80;;;1.08;;
21741;SDS011;11033;47.490;11.116;2023-04-29T05:37:35;1.70;;;1.13;;
21741;SDS011;11033;47.490;11.116;2023-04-29T05:40:00;2.30;;;1.00;;
21741;SDS011;11033;47.490;11.116;2023-04-29T05:42:26;2.25;;;1.15;;
21741;SDS011;11033;47.490;11.116;2023-04-29T05:44:51;1.75;;;1.00;;
21741;SDS011;11033;47.490;11.116;2023-04-29T05:47:17;4.43;;;1.52;;
21741;SDS011;11033;47.490;11.116;2023-04-29T05:49:42;2.45;;;1.20;;
21741;SDS011;11033;47.490;11.116;2023-04-29T05:52:07;1.03;;;0.97;;
21741;SDS011;11033;47.490;11.116;2023-04-29T05:54:33;2.95;;;1.15;;
21741;SDS011;11033;47.490;11.116;2023-04-29T05:56:58;2.08;;;1.20;;
21741;SDS011;11033;47.490;11.116;2023-04-29T05:59:30;1.55;;;0.98;;
21741;SDS011;11033;47.490;11.116;2023-04-29T06:01:56;4.60;;;1.15;;
21741;SDS011;11033;47.490;11.116;2023-04-29T06:04:22;1.42;;;1.30;;
21741;SDS011;11033;47.490;11.116;2023-04-29T06:06:49;3.50;;;1.40;;
21741;SDS011;11033;47.490;11.116;2023-04-29T06:09:15;3.80;;;1.45;;
21741;SDS011;11033;47.490;11.116;2023-04-29T06:11:40;1.58;;;1.48;;
21741;SDS011;11033;47.490;11.116;2023-04-29T06:14:05;2.53;;;1.30;;
21741;SDS011;11033;47.490;11.116;2023-04-29T06:16:31;3.13;;;1.65;;
21741;SDS011;11033;47.490;11.116;2023-04-29T06:18:57;1.95;;;1.40;;
21741;SDS011;11033;47.490;11.116;2023-04-29T06:21:22;2.00;;;1.25;;
21741;SDS011;11033;47.490;11.116;2023-04-29T06:23:47;2.08;;;1.25;;
21741;SDS011;11033;47.490;11.116;2023-04-29T06:26:13;1.73;;;1.40;;
21741;SDS011;11033;47.490;11.116;2023-04-29T06:28:38;5.55;;;1.77;;
21741;SDS011;11033;47.490;11.116;2023-04-29T06:31:04;2.88;;;1.40;;
21741;SDS011;11033;47.490;11.116;2023-04-29T06:33:29;1.58;;;1.15;;
21741;SDS011;11033;47.490;11.116;2023-04-29T06:35:55;1.88;;;1.38;;
21741;SDS011;11033;47.490;11.116;2023-04-29T06:38:21;1.83;;;1.00;;
21741;SDS011;11033;47.490;11.116;2023-04-29T06:40:46;1.48;;;1.13;;
21741;SDS011;11033;47.490;11.116;2023-04-29T06:43:11;2.28;;;1.20;;
21741;SDS011;11033;47.490;11.116;2023-04-29T06:45:37;1.80;;;1.10;;
21741;SDS011;11033;47.490;11.116;2023-04-29T06:48:02;0.80;;;0.80;;
21741;SDS011;11033;47.490;11.116;2023-04-29T06:50:27;4.22;;;1.33;;
21741;SDS011;11033;47.490;11.116;2023-04-29T06:52:53;2.28;;;1.13;;
21741;SDS011;11033;47.490;11.116;2023-04-29T06:55:18;1.20;;;1.10;;
21741;SDS011;11033;47.490;11.116;2023-04-29T06:57:43;1.85;;;1.17;;
21741;SDS011;11033;47.490;11.116;2023-04-29T07:00:09;3.43;;;1.00;;
21741;SDS011;11033;47.490;11.116;2023-04-29T07:02:34;2.15;;;1.10;;
21741;SDS011;11033;47.490;11.116;2023-04-29T07:05:01;1.45;;;0.90;;
21741;SDS011;11033;47.490;11.116;2023-04-29T07:07:26;0.80;;;0.80;;
21741;SDS011;11033;47.490;11.116;2023-04-29T07:09:52;0.98;;;0.70;;
21741;SDS011;11033;47.490;11.116;2023-04-29T07:12:18;3.10;;;0.90;;
21741;SDS011;11033;47.490;11.116;2023-04-29T07:14:43;0.95;;;0.95;;
21741;SDS011;11033;47.490;11.116;2023-04-29T07:17:08;0.80;;;0.80;;
21741;SDS011;11033;47.490;11.116;2023-04-29T07:19:34;0.65;;;0.65;;
21741;SDS011;11033;47.490;11.116;2023-04-29T07:21:59;2.40;;;0.90;;
21741;SDS011;11033;47.490;11.116;2023-04-29T07:24:24;1.35;;;0.80;;
21741;SDS011;11033;47.490;11.116;2023-04-29T07:26:50;2.10;;;0.90;;
21741;SDS011;11033;47.490;11.116;2023-04-29T07:29:15;1.15;;;1.10;;
21741;SDS011;11033;47.490;11.116;2023-04-29T07:31:41;1.77;;;1.00;;
21741;SDS011;11033;47.490;11.116;2023-04-29T07:34:06;0.73;;;0.73;;
21741;SDS011;11033;47.490;11.116;2023-04-29T07:36:31;0.95;;;0.95;;
21741;SDS011;11033;47.490;11.116;2023-04-29T07:38:57;2.10;;;1.33;;
21741;SDS011;11033;47.490;11.116;2023-04-29T07:41:23;1.27;;;1.17;;
21741;SDS011;11033;47.490;11.116;2023-04-29T07:43:48;3.28;;;1.42;;
21741;SDS011;11033;47.490;11.116;2023-04-29T07:46:13;1.50;;;1.40;;
21741;SDS011;11033;47.490;11.116;2023-04-29T07:48:42;1.63;;;1.15;;
21741;SDS011;11033;47.490;11.116;2023-04-29T07:51:11;1.30;;;1.20;;
21741;SDS011;11033;47.490;11.116;2023-04-29T07:53:37;2.30;;;1.40;;
21741;SDS011;11033;47.490;11.116;2023-04-29T07:56:06;1.73;;;1.40;;
21741;SDS011;11033;47.490;11.116;2023-04-29T07:58:32;1.98;;;1.35;;
21741;SDS011;11033;47.490;11.116;2023-04-29T08:01:04;1.40;;;1.30;;
21741;SDS011;11033;47.490;11.116;2023-04-29T08:03:33;1.67;;;1.40;;
21741;SDS011;11033;47.490;11.116;2023-04-29T08:06:02;0.95;;;0.95;;
21741;SDS011;11033;47.490;11.116;2023-04-29T08:08:29;1.27;;;1.00;;
21741;SDS011;11033;47.490;11.116;2023-04-29T08:10:55;0.80;;;0.80;;
21741;SDS011;11033;47.490;11.116;2023-04-29T08:13:20;2.00;;;1.08;;
21741;SDS011;11033;47.490;11.116;2023-04-29T08:15:45;1.67;;;1.20;;
21741;SDS011;11033;47.490;11.116;2023-04-29T08:18:11;1.50;;;1.40;;
21741;SDS011;11033;47.490;11.116;2023-04-29T08:20:36;2.43;;;1.07;;
21741;SDS011;11033;47.490;11.116;2023-04-29T08:23:01;2.00;;;1.23;;
21741;SDS011;11033;47.490;11.116;2023-04-29T08:25:26;1.17;;;1.00;;
21741;SDS011;11033;47.490;11.116;2023-04-29T08:27:53;1.30;;;1.20;;
21741;SDS011;11033;47.490;11.116;2023-04-29T08:30:18;1.20;;;1.10;;
21741;SDS011;11033;47.490;11.116;2023-04-29T08:32:43;1.67;;;1.30;;
21741;SDS011;11033;47.490;11.116;2023-04-29T08:35:09;1.38;;;1.10;;
21741;SDS011;11033;47.490;11.116;2023-04-29T08:37:34;1.75;;;1.30;;
21741;SDS011;11033;47.490;11.116;2023-04-29T08:39:59;2.63;;;1.10;;
21741;SDS011;11033;47.490;11.116;2023-04-29T08:42:31;1.45;;;1.27;;
21741;SDS011;11033;47.490;11.116;2023-04-29T08:44:58;1.50;;;1.38;;
21741;SDS011;11033;47.490;11.116;2023-04-29T08:47:26;1.20;;;1.00;;
21741;SDS011;11033;47.490;11.116;2023-04-29T08:49:54;2.63;;;1.42;;
21741;SDS011;11033;47.490;11.116;2023-04-29T08:52:20;4.30;;;1.45;;
21741;SDS011;11033;47.490;11.116;2023-04-29T08:54:45;3.25;;;1.60;;
21741;SDS011;11033;47.490;11.116;2023-04-29T08:57:10;1.65;;;1.48;;
21741;SDS011;11033;47.490;11.116;2023-04-29T08:59:37;1.25;;;1.10;;
21741;SDS011;11033;47.490;11.116;2023-04-29T09:02:02;2.22;;;1.30;;
21741;SDS011;11033;47.490;11.116;2023-04-29T09:07:10;2.08;;;1.50;;
21741;SDS011;11033;47.490;11.116;2023-04-29T09:09:38;1.35;;;1.15;;
21741;SDS011;11033;47.490;11.116;2023-04-29T09:12:04;1.75;;;1.30;;
21741;SDS011;11033;47.490;11.116;2023-04-29T09:14:29;3.38;;;1.20;;
21741;SDS011;11033;47.490;11.116;2023-04-29T09:16:58;1.52;;;1.25;;
21741;SDS011;11033;47.490;11.116;2023-04-29T09:19:34;1.88;;;1.40;;
21741;SDS011;11033;47.490;11.116;2023-04-29T09:22:01;1.88;;;1.40;;
21741;SDS011;11033;47.490;11.116;2023-04-29T09:24:27;3.33;;;1.27;;
21741;SDS011;11033;47.490;11.116;2023-04-29T09:26:54;2.00;;;1.23;;
21741;SDS011;11033;47.490;11.116;2023-04-29T09:29:20;1.92;;;1.38;;
21741;SDS011;11033;47.490;11.116;2023-04-29T09:31:46;1.67;;;1.15;;
21741;SDS011;11033;47.490;11.116;2023-04-29T09:34:11;2.10;;;1.27;;
21741;SDS011;11033;47.490;11.116;2023-04-29T09:39:11;2.70;;;1.48;;
21741;SDS011;11033;47.490;11.116;2023-04-29T09:49:33;1.20;;;1.08;;
21741;SDS011;11033;47.490;11.116;2023-04-29T09:52:02;1.67;;;1.38;;
21741;SDS011;11033;47.490;11.116;2023-04-29T09:54:30;2.03;;;0.98;;
21741;SDS011;11033;47.490;11.116;2023-04-29T09:56:57;3.05;;;1.33;;
21741;SDS011;11033;47.490;11.116;2023-04-29T09:59:23;2.42;;;1.50;;
21741;SDS011;11033;47.490;11.116;2023-04-29T10:01:55;2.20;;;1.58;;
21741;SDS011;11033;47.490;11.116;2023-04-29T10:04:22;0.88;;;0.88;;
21741;SDS011;11033;47.490;11.116;2023-04-29T10:06:50;1.58;;;0.90;;
21741;SDS011;11033;47.490;11.116;2023-04-29T10:09:17;4.55;;;1.42;;
21741;SDS011;11033;47.490;11.116;2023-04-29T10:11:47;1.20;;;1.20;;
21741;SDS011;11033;47.490;11.116;2023-04-29T10:14:15;1.40;;;1.30;;
21741;SDS011;11033;47.490;11.116;2023-04-29T10:16:48;1.20;;;1.10;;
21741;SDS011;11033;47.490;11.116;2023-04-29T10:19:55;5.53;;;1.20;;
21741;SDS011;11033;47.490;11.116;2023-04-29T10:22:26;0.93;;;0.93;;
21741;SDS011;11033;47.490;11.116;2023-04-29T10:24:57;0.60;;;0.60;;
21741;SDS011;11033;47.490;11.116;2023-04-29T10:27:25;0.75;;;0.75;;
21741;SDS011;11033;47.490;11.116;2023-04-29T10:29:52;1.05;;;0.80;;
21741;SDS011;11033;47.490;11.116;2023-04-29T10:32:20;0.80;;;0.80;;
21741;SDS011;11033;47.490;11.116;2023-04-29T10:34:47;1.42;;;0.98;;
21741;SDS011;11033;47.490;11.116;2023-04-29T10:37:13;2.03;;;1.15;;
21741;SDS011;11033;47.490;11.116;2023-04-29T10:53:02;3.13;;;1.00;;
21741;SDS011;11033;47.490;11.116;2023-04-29T10:55:28;1.08;;;1.05;;
21741;SDS011;11033;47.490;11.116;2023-04-29T10:57:55;3.10;;;0.90;;
21741;SDS011;11033;47.490;11.116;2023-04-29T11:00:21;0.93;;;0.90;;
21741;SDS011;11033;47.490;11.116;2023-04-29T11:02:54;1.17;;;0.77;;
21741;SDS011;11033;47.490;11.116;2023-04-29T11:05:30;0.73;;;0.73;;
21741;SDS011;11033;47.490;11.116;2023-04-29T11:08:12;1.20;;;0.80;;
21741;SDS011;11033;47.490;11.116;2023-04-29T11:16:02;0.57;;;0.57;;
21741;SDS011;11033;47.490;11.116;2023-04-29T11:18:32;0.75;;;0.70;;
21741;SDS011;11033;47.490;11.116;2023-04-29T11:21:10;4.90;;;0.95;;
21741;SDS011;11033;47.490;11.116;2023-04-29T11:23:36;4.60;;;0.80;;
21741;SDS011;11033;47.490;11.116;2023-04-29T11:26:03;1.60;;;1.00;;
21741;SDS011;11033;47.490;11.116;2023-04-29T11:28:29;0.80;;;0.80;;
21741;SDS011;11033;47.490;11.116;2023-04-29T11:30:55;0.60;;;0.60;;
21741;SDS011;11033;47.490;11.116;2023-04-29T11:33:22;3.90;;;1.13;;
21741;SDS011;11033;47.490;11.116;2023-04-29T11:35:47;1.00;;;0.80;;
21741;SDS011;11033;47.490;11.116;2023-04-29T11:38:13;1.55;;;1.00;;
21741;SDS011;11033;47.490;11.116;2023-04-29T11:40:47;1.05;;;0.90;;
21741;SDS011;11033;47.490;11.116;2023-04-29T11:43:17;0.90;;;0.70;;
21741;SDS011;11033;47.490;11.116;2023-04-29T11:45:45;1.48;;;0.80;;
21741;SDS011;11033;47.490;11.116;2023-04-29T11:50:50;1.90;;;1.25;;
21741;SDS011;11033;47.490;11.116;2023-04-29T11:53:23;1.58;;;0.75;;
21741;SDS011;11033;47.490;11.116;2023-04-29T11:55:49;0.90;;;0.80;;
21741;SDS011;11033;47.490;11.116;2023-04-29T11:58:17;0.90;;;0.90;;
21741;SDS011;11033;47.490;11.116;2023-04-29T12:00:46;0.93;;;0.93;;
21741;SDS011;11033;47.490;11.116;2023-04-29T12:03:12;2.15;;;1.20;;
21741;SDS011;11033;47.490;11.116;2023-04-29T12:05:44;0.93;;;0.90;;
21741;SDS011;11033;47.490;11.116;2023-04-29T12:08:18;1.25;;;0.90;;
21741;SDS011;11033;47.490;11.116;2023-04-29T12:10:44;0.60;;;0.60;;
21741;SDS011;11033;47.490;11.116;2023-04-29T12:13:10;1.95;;;0.65;;
21741;SDS011;11033;47.490;11.116;2023-04-29T12:15:36;2.28;;;0.88;;
21741;SDS011;11033;47.490;11.116;2023-04-29T12:18:01;1.20;;;0.70;;
21741;SDS011;11033;47.490;11.116;2023-04-29T12:20:27;0.68;;;0.68;;
21741;SDS011;11033;47.490;11.116;2023-04-29T12:22:53;0.60;;;0.60;;
21741;SDS011;11033;47.490;11.116;2023-04-29T12:25:18;0.60;;;0.60;;
21741;SDS011;11033;47.490;11.116;2023-04-29T12:27:46;0.75;;;0.75;;
21741;SDS011;11033;47.490;11.116;2023-04-29T12:30:12;1.05;;;0.60;;
21741;SDS011;11033;47.490;11.116;2023-04-29T12:32:38;1.08;;;0.60;;
21741;SDS011;11033;47.490;11.116;2023-04-29T12:35:03;0.73;;;0.70;;
21741;SDS011;11033;47.490;11.116;2023-04-29T12:37:29;0.68;;;0.68;;
21741;SDS011;11033;47.490;11.116;2023-04-29T12:39:54;0.60;;;0.60;;
21741;SDS011;11033;47.490;11.116;2023-04-29T12:42:20;0.80;;;0.80;;
21741;SDS011;11033;47.490;11.116;2023-04-29T12:44:45;0.88;;;0.77;;
21741;SDS011;11033;47.490;11.116;2023-04-29T12:47:12;0.90;;;0.90;;
21741;SDS011;11033;47.490;11.116;2023-04-29T12:49:41;1.85;;;0.70;;
21741;SDS011;11033;47.490;11.116;2023-04-29T12:52:07;0.73;;;0.73;;
21741;SDS011;11033;47.490;11.116;2023-04-29T12:54:37;1.13;;;0.88;;
21741;SDS011;11033;47.490;11.116;2023-04-29T12:57:07;2.38;;;1.00;;
21741;SDS011;11033;47.490;11.116;2023-04-29T12:59:33;1.17;;;0.68;;
21741;SDS011;11033;47.490;11.116;2023-04-29T13:01:59;0.70;;;0.70;;
21741;SDS011;11033;47.490;11.116;2023-04-29T13:04:25;0.82;;;0.73;;
21741;SDS011;11033;47.490;11.116;2023-04-29T13:06:50;2.28;;;0.73;;
21741;SDS011;11033;47.490;11.116;2023-04-29T13:09:23;0.93;;;0.50;;
21741;SDS011;11033;47.490;11.116;2023-04-29T13:11:48;1.10;;;1.00;;
21741;SDS011;11033;47.490;11.116;2023-04-29T13:14:13;2.00;;;1.30;;
21741;SDS011;11033;47.490;11.116;2023-04-29T13:16:39;1.42;;;1.25;;
21741;SDS011;11033;47.490;11.116;2023-04-29T13:19:04;1.23;;;1.13;;
21741;SDS011;11033;47.490;11.116;2023-04-29T13:21:31;1.40;;;1.17;;
21741;SDS011;11033;47.490;11.116;2023-04-29T13:23:56;1.58;;;1.20;;
21741;SDS011;11033;47.490;11.116;2023-04-29T13:26:22;2.30;;;0.93;;
21741;SDS011;11033;47.490;11.116;2023-04-29T13:28:49;4.05;;;1.20;;
21741;SDS011;11033;47.490;11.116;2023-04-29T13:31:15;1.80;;;1.30;;
21741;SDS011;11033;47.490;11.116;2023-04-29T13:33:40;1.17;;;1.00;;
21741;SDS011;11033;47.490;11.116;2023-04-29T13:36:07;1.17;;;1.00;;
21741;SDS011;11033;47.490;11.116;2023-04-29T13:38:32;2.25;;;0.90;;
21741;SDS011;11033;47.490;11.116;2023-04-29T13:40:58;1.87;;;1.03;;
21741;SDS011;11033;47.490;11.116;2023-04-29T13:43:23;1.30;;;1.00;;
21741;SDS011;11033;47.490;11.116;2023-04-29T13:45:48;2.03;;;1.20;;
21741;SDS011;11033;47.490;11.116;2023-04-29T13:48:15;1.60;;;1.50;;
21741;SDS011;11033;47.490;11.116;2023-04-29T13:50:40;1.30;;;1.20;;
21741;SDS011;11033;47.490;11.116;2023-04-29T13:53:06;2.13;;;1.17;;
21741;SDS011;11033;47.490;11.116;2023-04-29T13:55:32;1.38;;;1.27;;
21741;SDS011;11033;47.490;11.116;2023-04-29T13:57:59;1.33;;;1.23;;
21741;SDS011;11033;47.490;11.116;2023-04-29T14:00:24;1.00;;;0.93;;
21741;SDS011;11033;47.490;11.116;2023-04-29T14:02:50;1.75;;;1.13;;
21741;SDS011;11033;47.490;11.116;2023-04-29T14:05:15;1.38;;;1.00;;
21741;SDS011;11033;47.490;11.116;2023-04-29T14:07:40;1.63;;;1.52;;
21741;SDS011;11033;47.490;11.116;2023-04-29T14:10:06;1.00;;;0.83;;
21741;SDS011;11033;47.490;11.116;2023-04-29T14:12:31;1.17;;;0.90;;
21741;SDS011;11033;47.490;11.116;2023-04-29T14:14:56;2.07;;;1.57;;
21741;SDS011;11033;47.490;11.116;2023-04-29T14:17:22;3.63;;;1.40;;
21741;SDS011;11033;47.490;11.116;2023-04-29T14:19:47;1.70;;;1.30;;
21741;SDS011;11033;47.490;11.116;2023-04-29T14:22:12;1.90;;;1.50;;
21741;SDS011;11033;47.490;11.116;2023-04-29T14:24:37;3.73;;;2.13;;
21741;SDS011;11033;47.490;11.116;2023-04-29T14:27:03;3.10;;;2.53;;
21741;SDS011;11033;47.490;11.116;2023-04-29T14:29:28;3.75;;;1.60;;
21741;SDS011;11033;47.490;11.116;2023-04-29T14:31:54;4.28;;;2.15;;
21741;SDS011;11033;47.490;11.116;2023-04-29T14:34:19;2.73;;;2.20;;
21741;SDS011;11033;47.490;11.116;2023-04-29T14:36:45;4.07;;;2.30;;
21741;SDS011;11033;47.490;11.116;2023-04-29T14:39:13;2.58;;;2.17;;
21741;SDS011;11033;47.490;11.116;2023-04-29T14:41:38;3.85;;;1.40;;
21741;SDS011;11033;47.490;11.116;2023-04-29T14:44:04;7.25;;;1.73;;
21741;SDS011;11033;47.490;11.116;2023-04-29T14:46:32;2.30;;;1.83;;
21741;SDS011;11033;47.490;11.116;2023-04-29T14:48:58;5.68;;;1.42;;
21741;SDS011;11033;47.490;11.116;2023-04-29T14:51:23;3.55;;;0.90;;
21741;SDS011;11033;47.490;11.116;2023-04-29T14:53:49;3.38;;;1.10;;
21741;SDS011;11033;47.490;11.116;2023-04-29T14:56:15;2.53;;;1.30;;
21741;SDS011;11033;47.490;11.116;2023-04-29T14:58:41;2.70;;;1.60;;
21741;SDS011;11033;47.490;11.116;2023-04-29T15:01:07;1.08;;;0.90;;
21741;SDS011;11033;47.490;11.116;2023-04-29T15:03:32;1.52;;;1.10;;
21741;SDS011;11033;47.490;11.116;2023-04-29T15:05:59;1.80;;;1.50;;
21741;SDS011;11033;47.490;11.116;2023-04-29T15:08:26;2.22;;;1.80;;
21741;SDS011;11033;47.490;11.116;2023-04-29T15:10:51;1.50;;;1.40;;
21741;SDS011;11033;47.490;11.116;2023-04-29T15:13:16;3.08;;;1.10;;
21741;SDS011;11033;47.490;11.116;2023-04-29T15:15:42;1.20;;;1.10;;
21741;SDS011;11033;47.490;11.116;2023-04-29T15:18:07;2.78;;;1.30;;
21741;SDS011;11033;47.490;11.116;2023-04-29T15:20:33;2.13;;;1.52;;